createdAt,value
2018-07-09T00:00:58.197Z,17.30
2018-07-09T00:03:27.299Z,17.30
2018-07-09T00:05:55.980Z,17.30
2018-07-09T00:08:24.880Z,17.20
2018-07-09T00:11:05.660Z,17.20
2018-07-09T00:13:35.224Z,17.10
2018-07-09T00:16:04.007Z,17.10
2018-07-09T00:18:32.699Z,17.00
2018-07-09T00:21:01.281Z,17.00
2018-07-09T00:23:30.422Z,17.00
2018-07-09T00:25:59.305Z,16.90
2018-07-09T00:28:28.325Z,16.90
2018-07-09T00:30:57.607Z,16.90
2018-07-09T00:33:26.276Z,16.80
2018-07-09T00:35:54.894Z,16.80
2018-07-09T00:38:23.426Z,16.80
2018-07-09T00:40:52.006Z,16.70
2018-07-09T00:43:20.538Z,16.70
2018-07-09T00:45:50.179Z,16.60
2018-07-09T00:48:18.792Z,16.60
2018-07-09T00:50:47.476Z,16.60
2018-07-09T00:53:16.146Z,16.50
2018-07-09T00:55:44.932Z,16.50
2018-07-09T00:58:13.570Z,16.40
2018-07-09T01:00:42.149Z,16.40
2018-07-09T01:05:39.088Z,16.40
2018-07-09T01:08:07.917Z,16.30
2018-07-09T01:10:46.382Z,16.30
2018-07-09T01:13:14.902Z,16.30
2018-07-09T01:15:43.492Z,16.30
2018-07-09T01:18:12.063Z,16.30
2018-07-09T01:23:09.104Z,16.20
2018-07-09T01:25:37.749Z,16.20
2018-07-09T01:28:06.343Z,16.20
2018-07-09T01:30:36.170Z,16.10
2018-07-09T01:33:04.751Z,16.10
2018-07-09T01:35:33.437Z,16.10
2018-07-09T01:38:02.017Z,16.10
2018-07-09T01:40:30.579Z,16.10
2018-07-09T01:42:59.113Z,16.10
2018-07-09T01:45:27.671Z,16.00
2018-07-09T01:47:56.241Z,16.00
2018-07-09T01:50:24.823Z,16.00
2018-07-09T01:52:53.347Z,16.10
2018-07-09T01:55:21.873Z,16.00
2018-07-09T01:57:50.475Z,16.00
2018-07-09T02:00:19.062Z,16.00
2018-07-09T02:02:47.644Z,15.90
2018-07-09T02:05:16.225Z,16.00
2018-07-09T02:07:44.794Z,15.80
2018-07-09T02:10:13.310Z,15.90
2018-07-09T02:12:42.013Z,15.90
2018-07-09T02:15:10.708Z,15.90
2018-07-09T02:17:39.289Z,16.00
2018-07-09T02:20:08.103Z,15.90
2018-07-09T02:22:36.831Z,15.80
2018-07-09T02:25:05.401Z,15.80
2018-07-09T02:27:34.097Z,15.80
2018-07-09T02:30:02.812Z,15.80
2018-07-09T02:32:31.425Z,15.70
2018-07-09T02:35:00.376Z,15.70
2018-07-09T02:39:57.151Z,15.70
2018-07-09T02:42:25.852Z,15.80
2018-07-09T02:44:54.622Z,15.70
2018-07-09T02:47:23.230Z,15.70
2018-07-09T02:49:51.903Z,16.00
2018-07-09T02:52:20.771Z,15.70
2018-07-09T02:54:49.460Z,15.70
2018-07-09T02:57:18.286Z,15.70
2018-07-09T02:59:46.861Z,15.70
2018-07-09T03:02:15.815Z,15.60
2018-07-09T03:04:44.399Z,15.60
2018-07-09T03:07:13.115Z,15.60
2018-07-09T03:09:42.028Z,15.60
2018-07-09T03:12:10.762Z,15.60
2018-07-09T03:14:39.336Z,15.60
2018-07-09T03:17:07.925Z,15.60
2018-07-09T03:19:36.691Z,15.60
2018-07-09T03:22:05.389Z,15.60
2018-07-09T03:24:33.895Z,15.60
2018-07-09T03:27:02.522Z,15.70
2018-07-09T03:29:31.102Z,15.60
2018-07-09T03:34:27.872Z,15.70
2018-07-09T03:36:56.429Z,15.70
2018-07-09T03:39:24.985Z,15.70
2018-07-09T03:41:54.115Z,15.80
2018-07-09T03:44:22.955Z,15.80
2018-07-09T03:46:51.497Z,15.80
2018-07-09T03:49:20.077Z,15.80
2018-07-09T03:51:48.655Z,15.70
2018-07-09T03:54:17.207Z,15.80
2018-07-09T03:56:45.761Z,15.80
2018-07-09T03:59:14.343Z,15.80
2018-07-09T04:01:42.856Z,15.90
2018-07-09T04:04:11.832Z,15.70
2018-07-09T04:06:40.388Z,15.70
2018-07-09T04:09:09.093Z,15.70
2018-07-09T04:11:38.157Z,15.70
2018-07-09T04:14:06.992Z,15.70
2018-07-09T04:16:35.619Z,15.70
2018-07-09T04:19:04.416Z,15.70
2018-07-09T04:21:32.965Z,15.70
2018-07-09T04:24:01.543Z,15.70
2018-07-09T04:26:30.575Z,15.70
2018-07-09T04:28:59.213Z,15.70
2018-07-09T04:33:56.038Z,15.70
2018-07-09T04:36:24.897Z,15.80
2018-07-09T04:38:53.424Z,15.80
2018-07-09T04:41:22.072Z,15.80
2018-07-09T04:43:50.953Z,15.80
2018-07-09T04:46:19.489Z,15.90
2018-07-09T04:48:48.154Z,15.90
2018-07-09T04:51:17.043Z,15.90
2018-07-09T04:53:45.654Z,16.00
2018-07-09T04:56:14.193Z,16.00
2018-07-09T04:58:42.751Z,16.10
2018-07-09T05:01:11.331Z,16.10
2018-07-09T05:03:39.852Z,16.20
2018-07-09T05:10:43.343Z,16.20
2018-07-09T05:13:11.909Z,16.40
2018-07-09T05:15:40.420Z,16.50
2018-07-09T05:18:09.090Z,16.50
2018-07-09T05:20:37.724Z,16.60
2018-07-09T05:23:06.316Z,16.60
2018-07-09T05:25:34.888Z,16.70
2018-07-09T05:28:03.407Z,16.70
2018-07-09T05:30:31.968Z,16.70
2018-07-09T05:33:00.527Z,16.50
2018-07-09T05:35:29.100Z,16.80
2018-07-09T05:37:57.695Z,16.90
2018-07-09T05:40:26.333Z,16.90
2018-07-09T05:42:54.895Z,17.00
2018-07-09T05:45:23.736Z,17.00
2018-07-09T05:47:52.353Z,17.00
2018-07-09T05:50:20.992Z,17.10
2018-07-09T05:52:49.558Z,17.20
2018-07-09T05:55:18.099Z,17.30
2018-07-09T05:57:47.409Z,17.40
2018-07-09T06:00:15.986Z,17.50
2018-07-09T06:02:44.575Z,17.60
2018-07-09T06:05:13.202Z,17.70
2018-07-09T06:07:41.804Z,17.80
2018-07-09T06:10:10.398Z,17.90
2018-07-09T06:12:39.007Z,18.00
2018-07-09T06:15:07.930Z,18.00
2018-07-09T06:17:36.572Z,18.10
2018-07-09T06:20:06.041Z,18.10
2018-07-09T06:25:02.908Z,18.40
2018-07-09T06:27:31.810Z,18.40
2018-07-09T06:30:00.439Z,18.40
2018-07-09T06:32:29.175Z,18.40
2018-07-09T06:34:57.931Z,18.30
2018-07-09T06:37:27.745Z,18.20
2018-07-09T06:39:56.384Z,18.20
2018-07-09T06:42:25.211Z,18.40
2018-07-09T06:44:54.156Z,18.30
2018-07-09T06:47:22.963Z,18.30
2018-07-09T06:49:51.638Z,18.20
2018-07-09T06:52:20.311Z,18.10
2018-07-09T06:54:48.872Z,18.20
2018-07-09T06:57:17.785Z,18.10
2018-07-09T06:59:46.369Z,18.20
2018-07-09T07:02:14.940Z,18.30
2018-07-09T07:04:43.549Z,18.30
2018-07-09T07:07:12.122Z,18.50
2018-07-09T07:09:40.843Z,18.70
2018-07-09T07:12:09.418Z,18.70
2018-07-09T07:14:38.147Z,18.70
2018-07-09T07:17:06.733Z,18.70
2018-07-09T07:19:35.343Z,18.70
2018-07-09T07:22:04.018Z,18.70
2018-07-09T07:24:32.592Z,18.70
2018-07-09T07:27:01.258Z,18.90
2018-07-09T07:29:29.834Z,19.10
2018-07-09T07:31:58.468Z,19.00
2018-07-09T07:34:27.015Z,19.10
2018-07-09T07:36:55.667Z,19.10
2018-07-09T07:39:24.262Z,19.10
2018-07-09T07:41:52.801Z,19.20
2018-07-09T07:44:21.397Z,19.30
2018-07-09T07:46:49.964Z,19.20
2018-07-09T07:49:18.561Z,19.10
2018-07-09T07:51:47.188Z,19.10
2018-07-09T07:54:15.796Z,19.30
2018-07-09T07:56:44.405Z,19.20
2018-07-09T07:59:13.015Z,19.40
2018-07-09T08:01:41.638Z,19.40
2018-07-09T08:04:10.272Z,19.50
2018-07-09T08:06:38.974Z,19.50
2018-07-09T08:09:07.612Z,19.40
2018-07-09T08:11:48.553Z,19.60
2018-07-09T08:14:04.785Z,19.60
2018-07-09T08:16:33.354Z,19.70
2018-07-09T08:19:02.011Z,19.70
2018-07-09T08:21:30.478Z,19.70
2018-07-09T08:23:59.101Z,19.80
2018-07-09T08:26:27.656Z,19.80
2018-07-09T08:28:56.269Z,19.80
2018-07-09T08:31:25.033Z,19.70
2018-07-09T08:33:53.478Z,19.80
2018-07-09T08:36:22.126Z,19.90
2018-07-09T08:38:50.709Z,19.90
2018-07-09T08:41:19.329Z,20.10
2018-07-09T08:43:47.999Z,20.00
2018-07-09T08:46:16.662Z,19.90
2018-07-09T08:48:45.419Z,19.90
2018-07-09T08:51:14.097Z,20.10
2018-07-09T08:53:42.726Z,20.40
2018-07-09T08:56:11.377Z,20.30
2018-07-09T08:58:40.167Z,20.20
2018-07-09T09:01:08.843Z,20.10
2018-07-09T09:03:37.439Z,20.40
2018-07-09T09:06:06.587Z,20.40
2018-07-09T09:08:35.211Z,20.40
2018-07-09T09:11:03.887Z,20.40
2018-07-09T09:13:32.564Z,20.60
2018-07-09T09:16:01.172Z,20.80
2018-07-09T09:18:30.316Z,20.80
2018-07-09T09:20:58.462Z,20.90
2018-07-09T09:23:27.059Z,20.90
2018-07-09T09:25:55.653Z,20.90
2018-07-09T09:28:24.299Z,21.00
2018-07-09T09:30:52.943Z,20.90
2018-07-09T09:33:21.569Z,20.90
2018-07-09T09:35:50.409Z,20.90
2018-07-09T09:38:19.039Z,20.90
2018-07-09T09:40:47.638Z,20.90
2018-07-09T09:43:16.207Z,20.90
2018-07-09T09:45:44.818Z,21.00
2018-07-09T09:48:13.349Z,21.20
2018-07-09T09:50:41.920Z,21.20
2018-07-09T09:53:10.484Z,21.50
2018-07-09T09:55:39.104Z,21.40
2018-07-09T09:58:08.404Z,21.60
2018-07-09T10:00:42.314Z,21.70
2018-07-09T10:03:10.990Z,21.70
2018-07-09T10:05:39.597Z,21.70
2018-07-09T10:08:08.165Z,21.70
2018-07-09T10:10:36.716Z,21.60
2018-07-09T10:13:05.268Z,21.50
2018-07-09T10:15:33.887Z,21.70
2018-07-09T10:18:02.496Z,21.70
2018-07-09T10:20:31.203Z,21.60
2018-07-09T10:22:59.891Z,21.60
2018-07-09T10:25:28.445Z,21.50
2018-07-09T10:27:57.024Z,21.40
2018-07-09T10:30:25.620Z,21.50
2018-07-09T10:32:54.370Z,21.60
2018-07-09T10:35:22.931Z,21.50
2018-07-09T10:37:51.573Z,21.40
2018-07-09T10:40:20.266Z,21.30
2018-07-09T10:42:48.974Z,21.30
2018-07-09T10:45:17.599Z,21.30
2018-07-09T10:47:46.188Z,21.40
2018-07-09T10:50:15.146Z,21.40
2018-07-09T10:52:43.917Z,21.30
2018-07-09T10:55:12.663Z,21.30
2018-07-09T10:57:41.489Z,21.40
2018-07-09T11:00:10.196Z,21.30
2018-07-09T11:02:39.977Z,21.30
2018-07-09T11:05:08.633Z,21.40
2018-07-09T11:07:38.148Z,21.30
2018-07-09T11:10:07.452Z,21.30
2018-07-09T11:12:36.072Z,21.10
2018-07-09T11:15:05.119Z,21.20
2018-07-09T11:17:33.681Z,21.30
2018-07-09T11:20:02.327Z,21.20
2018-07-09T11:22:30.996Z,21.10
2018-07-09T11:25:00.099Z,21.10
2018-07-09T11:27:28.912Z,21.10
2018-07-09T11:29:58.412Z,21.10
2018-07-09T11:32:27.403Z,21.10
2018-07-09T11:34:56.084Z,21.30
2018-07-09T11:37:25.092Z,21.20
2018-07-09T11:39:53.703Z,21.30
2018-07-09T11:42:22.271Z,21.30
2018-07-09T11:44:50.955Z,21.40
2018-07-09T11:47:19.633Z,21.50
2018-07-09T11:49:48.416Z,21.50
2018-07-09T11:52:17.031Z,21.70
2018-07-09T11:54:45.715Z,21.70
2018-07-09T11:57:14.287Z,21.60
2018-07-09T11:59:42.868Z,21.60
2018-07-09T12:02:11.432Z,21.50
2018-07-09T12:04:40.045Z,21.50
2018-07-09T12:07:08.566Z,21.60
2018-07-09T12:09:37.435Z,21.60
2018-07-09T12:12:06.325Z,21.80
2018-07-09T12:14:35.168Z,21.80
2018-07-09T12:17:03.768Z,21.70
2018-07-09T12:19:32.401Z,21.80
2018-07-09T12:22:00.989Z,21.90
2018-07-09T12:24:29.592Z,22.00
2018-07-09T12:26:58.203Z,22.00
2018-07-09T12:29:26.735Z,22.10
2018-07-09T12:31:55.694Z,22.10
2018-07-09T12:34:24.380Z,22.30
2018-07-09T12:36:52.981Z,22.40
2018-07-09T12:39:21.570Z,22.30
2018-07-09T12:41:50.365Z,22.40
2018-07-09T12:44:18.965Z,22.40
2018-07-09T12:46:47.624Z,22.30
2018-07-09T12:49:16.372Z,22.40
2018-07-09T12:51:44.996Z,22.30
2018-07-09T12:54:14.430Z,22.50
2018-07-09T12:56:43.022Z,22.50
2018-07-09T12:59:11.837Z,22.60
2018-07-09T13:01:40.459Z,22.60
2018-07-09T13:04:09.050Z,22.70
2018-07-09T13:06:37.610Z,22.90
2018-07-09T13:09:06.314Z,22.90
2018-07-09T13:11:35.058Z,22.90
2018-07-09T13:14:03.740Z,22.90
2018-07-09T13:16:32.615Z,22.90
2018-07-09T13:19:01.286Z,23.20
2018-07-09T13:21:29.906Z,23.30
2018-07-09T13:23:58.503Z,23.20
2018-07-09T13:26:27.116Z,23.10
2018-07-09T13:28:55.721Z,22.90
2018-07-09T13:31:24.410Z,22.70
2018-07-09T13:33:52.995Z,22.80
2018-07-09T13:36:21.673Z,23.00
2018-07-09T13:38:50.396Z,23.00
2018-07-09T13:41:19.125Z,23.00
2018-07-09T13:43:47.752Z,23.00
2018-07-09T13:46:16.407Z,23.00
2018-07-09T13:48:45.045Z,22.90
2018-07-09T13:51:13.691Z,22.80
2018-07-09T13:53:42.369Z,22.80
2018-07-09T13:56:10.979Z,22.70
2018-07-09T13:58:40.041Z,22.70
2018-07-09T14:01:09.105Z,22.60
2018-07-09T14:03:37.754Z,22.60
2018-07-09T14:06:06.451Z,22.40
2018-07-09T14:08:35.075Z,22.30
2018-07-09T14:13:32.258Z,22.30
2018-07-09T14:16:00.850Z,22.10
2018-07-09T14:18:29.408Z,22.00
2018-07-09T14:20:58.710Z,21.90
2018-07-09T14:23:27.426Z,21.80
2018-07-09T14:25:56.188Z,21.70
2018-07-09T14:28:25.111Z,21.80
2018-07-09T14:30:53.692Z,21.70
2018-07-09T14:33:22.294Z,21.60
2018-07-09T14:35:50.961Z,21.50
2018-07-09T14:38:19.456Z,21.50
2018-07-09T14:40:48.051Z,21.50
2018-07-09T14:43:16.721Z,21.60
2018-07-09T14:45:45.658Z,21.70
2018-07-09T14:48:14.320Z,21.90
2018-07-09T14:50:43.048Z,21.80
2018-07-09T14:53:11.760Z,21.80
2018-07-09T14:55:40.330Z,21.80
2018-07-09T14:58:09.212Z,21.70
2018-07-09T15:00:37.778Z,21.70
2018-07-09T15:03:06.622Z,21.80
2018-07-09T15:05:35.249Z,21.90
2018-07-09T15:08:04.007Z,22.00
2018-07-09T15:10:32.631Z,22.10
2018-07-09T15:13:01.232Z,22.20
2018-07-09T15:15:29.807Z,22.30
2018-07-09T15:17:58.384Z,22.30
2018-07-09T15:20:26.971Z,22.20
2018-07-09T15:22:55.593Z,22.00
2018-07-09T15:25:24.293Z,22.00
2018-07-09T15:27:52.925Z,21.90
2018-07-09T15:30:21.513Z,22.00
2018-07-09T15:32:50.109Z,22.00
2018-07-09T15:35:18.720Z,21.90
2018-07-09T15:37:47.317Z,21.80
2018-07-09T15:40:16.019Z,21.90
2018-07-09T15:42:44.668Z,21.80
2018-07-09T15:45:13.247Z,21.80
2018-07-09T15:47:41.850Z,22.00
2018-07-09T15:50:10.580Z,21.90
2018-07-09T15:52:39.339Z,21.90
2018-07-09T15:55:07.969Z,21.80
2018-07-09T15:57:36.560Z,21.90
2018-07-09T16:00:05.322Z,22.00
2018-07-09T16:02:33.900Z,22.10
2018-07-09T16:05:02.557Z,22.10
2018-07-09T16:07:31.214Z,22.10
2018-07-09T16:09:59.835Z,22.00
2018-07-09T16:12:28.456Z,21.90
2018-07-09T16:14:57.358Z,21.90
2018-07-09T16:17:25.926Z,21.90
2018-07-09T16:19:54.681Z,22.00
2018-07-09T16:22:24.061Z,22.00
2018-07-09T16:24:53.056Z,22.00
2018-07-09T16:27:22.030Z,22.00
2018-07-09T16:29:50.662Z,22.00
2018-07-09T16:32:19.738Z,21.90
2018-07-09T16:34:48.623Z,21.90
2018-07-09T16:37:17.891Z,21.90
2018-07-09T16:39:46.527Z,21.90
2018-07-09T16:42:15.227Z,21.90
2018-07-09T16:44:43.869Z,21.80
2018-07-09T16:47:12.576Z,21.80
2018-07-09T16:49:41.280Z,21.70
2018-07-09T16:52:09.977Z,21.70
2018-07-09T16:54:38.638Z,21.70
2018-07-09T16:57:07.284Z,21.60
2018-07-09T16:59:35.920Z,21.60
2018-07-09T17:02:04.642Z,21.60
2018-07-09T17:04:33.287Z,21.60
2018-07-09T17:07:01.933Z,21.60
2018-07-09T17:09:30.645Z,21.60
2018-07-09T17:11:59.495Z,21.60
2018-07-09T17:14:29.257Z,21.60
2018-07-09T17:16:57.939Z,21.40
2018-07-09T17:19:26.796Z,21.50
2018-07-09T17:21:55.534Z,21.50
2018-07-09T17:26:52.769Z,21.30
2018-07-09T17:29:21.406Z,21.20
2018-07-09T17:31:50.189Z,21.20
2018-07-09T17:34:19.214Z,21.20
2018-07-09T17:36:48.070Z,21.00
2018-07-09T17:39:16.889Z,21.10
2018-07-09T17:41:45.844Z,21.10
2018-07-09T17:44:14.835Z,21.00
2018-07-09T17:46:43.519Z,21.00
2018-07-09T17:49:12.357Z,21.10
2018-07-09T17:51:41.224Z,20.90
2018-07-09T17:54:10.548Z,20.70
2018-07-09T17:56:39.196Z,20.60
2018-07-09T17:59:07.911Z,20.60
2018-07-09T18:01:36.687Z,20.60
2018-07-09T18:04:06.469Z,20.40
2018-07-09T18:06:35.103Z,20.20
2018-07-09T18:09:04.893Z,20.00
2018-07-09T18:11:33.595Z,19.90
2018-07-09T18:14:02.380Z,20.00
2018-07-09T18:16:31.173Z,19.80
2018-07-09T18:18:59.884Z,19.70
2018-07-09T18:21:28.635Z,19.70
2018-07-09T18:23:57.447Z,19.50
2018-07-09T18:26:26.064Z,19.70
2018-07-09T18:28:54.763Z,19.70
2018-07-09T18:31:23.394Z,19.60
2018-07-09T18:33:52.025Z,19.60
2018-07-09T18:36:20.583Z,19.50
2018-07-09T18:38:49.200Z,19.50
2018-07-09T18:41:17.776Z,19.50
2018-07-09T18:43:46.374Z,19.60
2018-07-09T18:46:15.288Z,19.50
2018-07-09T18:48:43.929Z,19.50
2018-07-09T18:51:12.543Z,19.30
2018-07-09T18:53:41.156Z,19.30
2018-07-09T18:56:10.694Z,19.30
2018-07-09T18:58:39.264Z,19.30
2018-07-09T19:01:08.036Z,19.30
2018-07-09T19:03:36.608Z,19.30
2018-07-09T19:07:14.680Z,19.30
2018-07-09T19:09:43.447Z,19.10
2018-07-09T19:12:12.214Z,19.10
2018-07-09T19:14:43.406Z,19.00
2018-07-09T19:17:47.840Z,19.00
2018-07-09T19:20:27.432Z,18.90
2018-07-09T19:22:54.819Z,18.80
2018-07-09T19:25:22.247Z,18.80
2018-07-09T19:27:49.640Z,18.80
2018-07-09T19:30:17.007Z,18.90
2018-07-09T19:32:44.378Z,18.90
2018-07-09T19:35:11.747Z,18.80
2018-07-09T19:37:39.501Z,18.80
2018-07-09T19:40:06.528Z,18.70
2018-07-09T19:42:33.981Z,18.70
2018-07-09T19:45:01.384Z,18.70
2018-07-09T19:47:28.948Z,18.50
2018-07-09T19:49:56.497Z,18.50
2018-07-09T19:52:24.145Z,18.50
2018-07-09T19:54:51.590Z,18.50
2018-07-09T19:57:19.033Z,18.50
2018-07-09T19:59:46.468Z,18.50
2018-07-09T20:02:13.815Z,18.30
2018-07-09T20:04:41.418Z,18.20
2018-07-09T20:07:08.797Z,18.10
2018-07-09T20:09:41.546Z,18.10
2018-07-09T20:12:16.357Z,18.10
2018-07-09T20:14:48.917Z,18.00
2018-07-09T20:17:16.361Z,18.00
2018-07-09T20:19:43.796Z,18.00
2018-07-09T20:22:11.174Z,18.00
2018-07-09T20:24:38.624Z,18.10
2018-07-09T20:27:06.017Z,18.10
2018-07-09T20:29:33.500Z,18.10
2018-07-09T20:32:00.877Z,18.00
2018-07-09T20:34:28.319Z,17.90
2018-07-09T20:36:55.743Z,17.80
2018-07-09T20:39:23.122Z,17.70
2018-07-09T20:41:50.551Z,17.70
2018-07-09T20:44:17.926Z,17.80
2018-07-09T20:46:45.339Z,17.80
2018-07-09T20:49:12.710Z,17.70
2018-07-09T20:51:40.128Z,17.90
2018-07-09T20:54:07.510Z,17.80
2018-07-09T20:56:34.952Z,17.60
2018-07-09T20:59:02.362Z,17.70
2018-07-09T21:01:29.801Z,17.70
2018-07-09T21:04:02.494Z,17.60
2018-07-09T21:06:30.015Z,17.70
2018-07-09T21:08:57.396Z,17.60
2018-07-09T21:11:24.825Z,17.50
2018-07-09T21:13:52.210Z,17.70
2018-07-09T21:16:19.709Z,17.50
2018-07-09T21:18:47.209Z,17.50
2018-07-09T21:21:14.637Z,17.70
2018-07-09T21:23:42.030Z,17.60
2018-07-09T21:26:10.179Z,17.50
2018-07-09T21:28:37.667Z,17.40
2018-07-09T21:31:05.139Z,17.20
2018-07-09T21:33:32.554Z,17.30
2018-07-09T21:35:59.979Z,17.40
2018-07-09T21:38:27.442Z,17.30
2018-07-09T21:40:54.946Z,17.30
2018-07-09T21:43:22.380Z,17.30
2018-07-09T21:45:49.738Z,17.30
2018-07-09T21:48:17.527Z,17.30
2018-07-09T21:50:44.898Z,17.30
2018-07-09T21:53:12.442Z,17.20
2018-07-09T21:55:40.103Z,17.20
2018-07-09T21:58:07.695Z,17.30
2018-07-09T22:00:35.158Z,17.30
2018-07-09T22:03:02.920Z,17.40
2018-07-09T22:05:30.317Z,17.20
2018-07-09T22:07:57.869Z,17.30
2018-07-09T22:10:25.266Z,17.20
2018-07-09T22:15:20.719Z,17.10
2018-07-09T22:17:48.116Z,17.00
2018-07-09T22:20:15.523Z,17.10
2018-07-09T22:22:42.873Z,17.00
2018-07-09T22:25:10.456Z,16.90
2018-07-09T22:27:37.817Z,16.90
2018-07-09T22:30:05.195Z,16.90
2018-07-09T22:32:33.736Z,16.80
2018-07-09T22:35:02.306Z,16.80
2018-07-09T22:37:30.944Z,16.90
2018-07-09T22:39:59.607Z,16.80
2018-07-09T22:42:28.779Z,16.70
2018-07-09T22:44:57.404Z,16.80
2018-07-09T22:47:26.161Z,16.80
2018-07-09T22:49:54.700Z,16.70
2018-07-09T22:55:02.627Z,16.50
2018-07-09T22:57:31.150Z,16.60
2018-07-09T22:59:59.701Z,16.60
2018-07-09T23:02:28.302Z,16.50
2018-07-09T23:04:57.071Z,16.50
2018-07-09T23:07:25.678Z,16.40
2018-07-09T23:10:07.654Z,16.30
2018-07-09T23:12:48.290Z,16.40
2018-07-09T23:15:36.737Z,16.40
2018-07-09T23:20:20.416Z,16.30
2018-07-09T23:22:47.785Z,16.40
2018-07-09T23:25:15.210Z,16.50
2018-07-09T23:27:42.697Z,16.30
2018-07-09T23:30:10.095Z,16.30
2018-07-09T23:32:37.475Z,16.20
2018-07-09T23:35:04.858Z,16.40
2018-07-09T23:37:32.220Z,16.30
2018-07-09T23:39:59.668Z,16.30
2018-07-09T23:42:27.814Z,16.20
2018-07-09T23:44:55.274Z,16.20
2018-07-09T23:47:22.698Z,16.20
2018-07-09T23:49:50.440Z,16.20
2018-07-09T23:52:17.892Z,16.10
2018-07-09T23:54:45.250Z,16.10
2018-07-09T23:59:41.087Z,16.10
